createdAt,value
2016-10-28T11:57:25.192Z,1680
2016-10-28T11:58:36.199Z,1832
2016-10-28T11:59:47.200Z,1860
2016-10-28T12:00:58.240Z,1728
2016-10-28T12:02:09.242Z,1600
2016-10-28T12:03:20.500Z,1256
2016-10-28T12:04:31.494Z,952
2016-10-28T12:05:42.751Z,740
2016-10-28T12:06:53.749Z,660
2016-10-28T12:08:04.825Z,612
2016-10-28T12:09:15.884Z,660
2016-10-28T12:10:26.903Z,692
2016-10-28T12:11:37.943Z,868
2016-10-28T12:12:48.945Z,948
2016-10-28T12:14:00.346Z,880
2016-10-28T12:15:11.398Z,868
2016-10-28T12:16:22.411Z,908
2016-10-28T12:17:33.530Z,852
2016-10-28T12:18:44.536Z,744
2016-10-28T12:19:55.746Z,708
2016-10-28T12:21:08.797Z,748
2016-10-28T12:22:24.030Z,736
2016-10-28T12:23:35.595Z,796
2016-10-28T12:24:46.608Z,752
2016-10-28T12:25:57.658Z,756
2016-10-28T12:27:08.719Z,788
2016-10-28T12:28:19.726Z,772
2016-10-28T12:29:30.732Z,692
2016-10-28T12:30:41.733Z,676
2016-10-28T12:31:52.794Z,804
2016-10-28T12:33:03.797Z,948
2016-10-28T12:34:15.055Z,988
2016-10-28T12:35:26.058Z,1184
2016-10-28T12:36:37.266Z,1184
2016-10-28T12:37:48.327Z,1084
2016-10-28T12:38:59.713Z,1068
2016-10-28T12:40:10.727Z,1096
2016-10-28T12:41:21.726Z,1028
2016-10-28T12:42:32.736Z,1068
2016-10-28T12:43:43.784Z,1068
2016-10-28T12:44:54.996Z,1056
2016-10-28T12:46:05.992Z,1160
2016-10-28T12:47:16.998Z,1208
2016-10-28T12:48:27.994Z,1356
2016-10-28T12:49:39.078Z,1584
2016-10-28T12:50:50.093Z,1680
2016-10-28T12:52:01.340Z,1912
2016-10-28T12:53:12.340Z,1948
2016-10-28T12:54:23.339Z,2012
2016-10-28T12:55:34.590Z,2348
2016-10-28T12:56:45.600Z,2732
2016-10-28T12:57:56.813Z,2776
2016-10-28T12:59:07.920Z,2380
2016-10-28T13:00:18.924Z,2608
2016-10-28T13:01:30.013Z,2416
2016-10-28T13:02:41.025Z,2368
2016-10-28T13:03:52.025Z,2140
2016-10-28T13:05:03.031Z,1992
2016-10-28T13:06:14.088Z,1852
2016-10-28T13:07:25.160Z,1588
2016-10-28T13:08:36.207Z,1360
2016-10-28T13:09:47.209Z,1192
2016-10-28T13:10:58.206Z,1284
2016-10-28T13:12:09.251Z,1372
2016-10-28T13:13:20.930Z,1296
2016-10-28T13:14:31.954Z,1152
2016-10-28T13:15:42.978Z,1040
2016-10-28T13:16:53.998Z,1096
2016-10-28T13:18:04.999Z,1244
2016-10-28T13:19:16.156Z,1228
2016-10-28T13:20:27.195Z,1268
2016-10-28T13:21:38.449Z,1096
2016-10-28T13:22:49.487Z,1020
2016-10-28T13:24:00.689Z,920
2016-10-28T13:25:11.968Z,920
2016-10-28T13:26:23.193Z,1044
2016-10-28T13:27:34.202Z,972
2016-10-28T13:28:45.412Z,952
2016-10-28T13:29:56.419Z,1484
2016-10-28T13:31:07.474Z,1940
2016-10-28T13:32:18.479Z,1608
2016-10-28T13:33:29.484Z,1492
2016-10-28T13:34:40.684Z,1596
2016-10-28T13:35:51.694Z,2028
2016-10-28T13:37:02.754Z,1948
2016-10-28T13:38:13.967Z,1864
2016-10-28T13:39:24.974Z,1528
2016-10-28T13:40:35.981Z,1404
2016-10-28T13:41:47.026Z,1352
2016-10-28T13:42:58.123Z,1488
2016-10-28T13:44:09.159Z,1588
2016-10-28T13:45:20.367Z,1700
2016-10-28T13:46:31.379Z,1528
2016-10-28T13:47:42.377Z,1696
2016-10-28T13:48:53.434Z,1648
2016-10-28T13:50:04.445Z,1364
2016-10-28T13:51:15.486Z,1164
2016-10-28T13:52:26.494Z,884
2016-10-28T13:53:37.494Z,796
2016-10-28T13:54:48.550Z,868
2016-10-28T13:55:59.591Z,812
2016-10-28T13:57:10.799Z,1080
2016-10-28T13:58:21.815Z,1264
2016-10-28T13:59:32.827Z,1424
2016-10-28T14:00:44.211Z,1316
2016-10-28T14:01:55.224Z,1536
2016-10-28T14:03:06.329Z,1452
2016-10-28T14:04:17.782Z,1568
2016-10-28T14:05:28.784Z,1632
2016-10-28T14:06:40.245Z,1716
2016-10-28T14:07:51.269Z,1648
2016-10-28T14:09:02.279Z,1488
2016-10-28T14:10:13.289Z,1320
2016-10-28T14:11:24.310Z,1400
2016-10-28T14:12:42.421Z,1544
2016-10-28T14:13:53.645Z,1368
2016-10-28T14:15:04.674Z,1404
2016-10-28T14:16:15.679Z,1288
2016-10-28T14:17:26.712Z,1300
2016-10-28T14:18:37.973Z,1620
2016-10-28T14:19:48.981Z,916
2016-10-28T14:20:59.989Z,828
2016-10-28T14:22:10.994Z,848
2016-10-28T14:23:22.247Z,740
2016-10-28T14:24:33.455Z,664
2016-10-28T14:25:44.661Z,552
2016-10-28T14:26:55.669Z,520
2016-10-28T14:28:06.884Z,644
2016-10-28T14:29:18.198Z,736
2016-10-28T14:30:29.212Z,972
2016-10-28T14:31:40.226Z,944
2016-10-28T14:32:51.222Z,1008
2016-10-28T14:34:02.217Z,860
2016-10-28T14:35:13.282Z,832
2016-10-28T14:36:24.371Z,852
2016-10-28T14:37:35.570Z,956
2016-10-28T14:38:46.572Z,1076
2016-10-28T14:39:57.584Z,896
2016-10-28T14:41:08.687Z,768
2016-10-28T14:42:19.691Z,592
2016-10-28T14:43:30.699Z,584
2016-10-28T14:44:41.744Z,548
2016-10-28T14:45:52.740Z,632
2016-10-28T14:47:03.833Z,536
2016-10-28T14:48:14.870Z,608
2016-10-28T14:49:25.869Z,628
2016-10-28T14:50:36.871Z,660
2016-10-28T14:51:47.886Z,632
2016-10-28T14:52:58.948Z,516
2016-10-28T14:54:10.148Z,428
2016-10-28T14:55:21.186Z,480
2016-10-28T14:56:32.454Z,524
2016-10-28T14:57:43.464Z,472
2016-10-28T14:58:54.517Z,572
2016-10-28T15:00:05.559Z,624
2016-10-28T15:01:16.598Z,624
2016-10-28T15:02:27.611Z,616
2016-10-28T15:03:38.648Z,612
2016-10-28T15:04:49.721Z,604
2016-10-28T15:06:00.827Z,568
2016-10-28T15:07:11.879Z,644
2016-10-28T15:08:22.885Z,596
2016-10-28T15:09:33.929Z,684
2016-10-28T15:10:44.987Z,804
2016-10-28T15:11:56.003Z,760
2016-10-28T15:13:07.005Z,624
2016-10-28T15:14:18.249Z,512
2016-10-28T15:15:29.250Z,456
2016-10-28T15:16:40.316Z,420
2016-10-28T15:17:51.753Z,476
2016-10-28T15:19:02.888Z,476
2016-10-28T15:20:13.899Z,436
2016-10-28T15:21:24.911Z,468
2016-10-28T15:22:36.192Z,460
2016-10-28T15:23:47.402Z,396
2016-10-28T15:24:58.600Z,416
2016-10-28T15:26:09.617Z,392
2016-10-28T15:27:20.626Z,368
2016-10-28T15:28:31.687Z,320
2016-10-28T15:29:42.690Z,316
2016-10-28T15:30:53.886Z,336
2016-10-28T15:32:05.088Z,344
2016-10-28T15:33:16.922Z,284
2016-10-28T15:34:28.187Z,312
2016-10-28T15:35:39.283Z,276
2016-10-28T15:36:50.296Z,284
2016-10-28T15:38:01.844Z,244
2016-10-28T15:39:17.361Z,188
2016-10-28T15:40:31.252Z,184
2016-10-28T15:41:44.765Z,188
2016-10-28T15:42:55.783Z,180
2016-10-28T15:44:06.827Z,180
2016-10-28T15:45:17.897Z,196
2016-10-28T15:46:29.162Z,160
2016-10-28T15:47:40.261Z,156
2016-10-28T15:48:51.482Z,148
2016-10-28T15:50:02.688Z,160
2016-10-28T15:51:13.991Z,144
2016-10-28T15:52:25.189Z,148
2016-10-28T15:53:36.519Z,152
2016-10-28T15:54:47.544Z,136
2016-10-28T15:55:58.748Z,120
2016-10-28T15:57:09.803Z,112
2016-10-28T15:58:20.814Z,96
2016-10-28T15:59:31.821Z,92
2016-10-28T16:00:42.825Z,80
2016-10-28T16:01:53.841Z,72
2016-10-28T16:03:04.899Z,60
2016-10-28T16:04:15.903Z,48
2016-10-28T16:05:26.991Z,36
2016-10-28T16:06:38.000Z,28
2016-10-28T16:07:49.008Z,24
2016-10-28T16:09:00.090Z,24
2016-10-28T16:10:11.094Z,20
2016-10-28T16:11:22.098Z,20
2016-10-28T16:12:33.559Z,20
2016-10-28T16:13:44.620Z,20
2016-10-28T16:14:55.684Z,20
2016-10-28T16:16:06.730Z,16
2016-10-28T16:17:17.789Z,16
2016-10-28T16:18:28.797Z,12
2016-10-28T16:19:39.844Z,8
2016-10-28T16:20:50.900Z,8
2016-10-28T16:22:01.899Z,4
2016-10-28T16:23:13.145Z,4
2016-10-28T16:24:24.210Z,4
2016-10-28T16:25:35.236Z,4
2016-10-28T16:26:46.290Z,4
2016-10-28T16:27:57.294Z,0
2016-10-28T16:29:08.334Z,0
2016-10-28T16:30:19.335Z,0
2016-10-28T16:31:30.542Z,4
2016-10-28T16:32:41.668Z,0
2016-10-28T16:33:55.019Z,0
2016-10-28T16:35:08.238Z,0
2016-10-28T16:36:23.238Z,0
2016-10-28T16:37:38.762Z,0
2016-10-28T16:38:51.338Z,0
2016-10-28T16:40:04.042Z,0
2016-10-28T16:41:15.159Z,0
2016-10-28T16:42:26.367Z,0
2016-10-28T16:43:37.470Z,0
2016-10-28T16:44:48.477Z,0
2016-10-28T16:45:59.487Z,0
2016-10-28T16:47:10.531Z,0
2016-10-28T16:48:21.561Z,0
2016-10-28T16:49:32.615Z,0
2016-10-28T16:50:43.625Z,0
2016-10-28T16:51:54.623Z,0
2016-10-28T16:53:05.632Z,0
2016-10-28T16:54:16.636Z,0
2016-10-28T16:55:27.896Z,0
2016-10-28T16:56:38.954Z,0
2016-10-28T16:57:49.953Z,0
2016-10-28T16:59:01.352Z,0
2016-10-28T17:00:12.361Z,0
